createdAt,value
2017-07-24T00:01:13.358Z,4.07
2017-07-24T00:03:40.871Z,8.50
2017-07-24T00:06:08.432Z,5.17
2017-07-24T00:08:35.946Z,5.33
2017-07-24T00:11:03.505Z,2.90
2017-07-24T00:13:31.032Z,3.27
2017-07-24T00:15:58.584Z,1.77
2017-07-24T00:18:26.104Z,3.10
2017-07-24T00:20:53.670Z,3.23
2017-07-24T00:23:21.185Z,3.03
2017-07-24T00:25:48.739Z,5.20
2017-07-24T00:28:16.266Z,6.03
2017-07-24T00:30:43.846Z,2.07
2017-07-24T00:33:11.371Z,4.33
2017-07-24T00:35:38.889Z,2.83
2017-07-24T00:38:06.437Z,2.60
2017-07-24T00:40:33.958Z,2.20
2017-07-24T00:43:01.502Z,2.50
2017-07-24T00:45:29.021Z,3.73
2017-07-24T00:47:56.573Z,1.83
2017-07-24T00:50:24.092Z,5.53
2017-07-24T00:52:51.638Z,3.70
2017-07-24T00:55:19.164Z,6.53
2017-07-24T00:57:46.711Z,4.23
2017-07-24T01:00:14.239Z,2.30
2017-07-24T01:02:41.796Z,2.30
2017-07-24T01:05:09.310Z,6.40
2017-07-24T01:07:36.860Z,9.30
2017-07-24T01:10:04.388Z,1.57
2017-07-24T01:12:31.936Z,7.63
2017-07-24T01:14:59.448Z,3.87
2017-07-24T01:17:27.005Z,2.73
2017-07-24T01:19:54.622Z,3.30
2017-07-24T01:22:22.190Z,1.60
2017-07-24T01:24:49.721Z,6.60
2017-07-24T01:27:17.253Z,11.50
2017-07-24T01:29:44.816Z,5.17
2017-07-24T01:32:12.341Z,3.13
2017-07-24T01:34:39.897Z,4.43
2017-07-24T01:37:07.435Z,5.80
2017-07-24T01:39:34.989Z,2.97
2017-07-24T01:42:02.532Z,3.37
2017-07-24T01:44:30.094Z,3.80
2017-07-24T01:46:57.616Z,1.80
2017-07-24T01:49:25.220Z,4.20
2017-07-24T01:51:52.762Z,6.33
2017-07-24T01:54:20.311Z,2.27
2017-07-24T01:56:47.869Z,1.77
2017-07-24T01:59:15.450Z,7.13
2017-07-24T02:01:43.120Z,2.50
2017-07-24T02:04:10.668Z,6.53
2017-07-24T02:06:38.188Z,4.37
2017-07-24T02:09:05.743Z,3.70
2017-07-24T02:11:33.264Z,3.40
2017-07-24T02:14:00.837Z,4.53
2017-07-24T02:16:28.368Z,3.97
2017-07-24T02:18:55.881Z,2.40
2017-07-24T02:21:23.428Z,4.87
2017-07-24T02:23:50.949Z,4.90
2017-07-24T02:26:18.498Z,3.07
2017-07-24T02:28:46.013Z,3.87
2017-07-24T02:31:13.564Z,4.70
2017-07-24T02:33:41.084Z,5.40
2017-07-24T02:36:08.646Z,1.90
2017-07-24T02:38:36.164Z,5.53
2017-07-24T02:41:03.722Z,4.10
2017-07-24T02:43:31.249Z,2.90
2017-07-24T02:45:58.806Z,7.20
2017-07-24T02:48:26.324Z,4.23
2017-07-24T02:50:53.904Z,5.03
2017-07-24T02:53:21.419Z,3.93
2017-07-24T02:55:48.964Z,8.60
2017-07-24T02:58:16.484Z,4.33
2017-07-24T03:00:44.044Z,3.90
2017-07-24T03:03:11.559Z,2.77
2017-07-24T03:05:39.211Z,4.40
2017-07-24T03:08:06.725Z,6.90
2017-07-24T03:10:34.247Z,2.27
2017-07-24T03:13:01.812Z,5.60
2017-07-24T03:15:29.406Z,4.10
2017-07-24T03:17:56.969Z,3.50
2017-07-24T03:20:24.481Z,3.23
2017-07-24T03:22:52.039Z,2.80
2017-07-24T03:25:19.640Z,7.70
2017-07-24T03:27:47.188Z,2.03
2017-07-24T03:30:14.706Z,9.57
2017-07-24T03:32:42.261Z,7.43
2017-07-24T03:35:09.792Z,6.10
2017-07-24T03:37:37.369Z,3.67
2017-07-24T03:40:04.892Z,2.30
2017-07-24T03:42:32.450Z,3.90
2017-07-24T03:44:59.965Z,2.50
2017-07-24T03:47:27.536Z,1.63
2017-07-24T03:49:55.058Z,3.77
2017-07-24T03:52:22.619Z,2.70
2017-07-24T03:54:50.151Z,4.00
2017-07-24T03:57:17.812Z,6.30
2017-07-24T03:59:45.334Z,1.90
2017-07-24T04:02:12.850Z,2.73
2017-07-24T04:04:40.401Z,8.67
2017-07-24T04:07:07.927Z,2.70
2017-07-24T04:09:35.496Z,1.67
2017-07-24T04:12:03.016Z,3.63
2017-07-24T04:14:30.568Z,8.20
2017-07-24T04:16:58.085Z,3.47
2017-07-24T04:19:25.628Z,9.20
2017-07-24T04:21:53.141Z,3.67
2017-07-24T04:24:20.689Z,2.80
2017-07-24T04:26:48.205Z,4.93
2017-07-24T04:29:15.753Z,3.93
2017-07-24T04:31:43.277Z,5.43
2017-07-24T04:34:10.831Z,3.50
2017-07-24T04:36:38.453Z,4.47
2017-07-24T04:39:06.113Z,10.63
2017-07-24T04:41:33.640Z,4.17
2017-07-24T04:44:01.190Z,6.63
2017-07-24T04:46:28.714Z,4.03
2017-07-24T04:48:56.237Z,8.10
2017-07-24T04:51:23.785Z,5.27
2017-07-24T04:53:51.354Z,6.83
2017-07-24T04:56:18.914Z,7.90
2017-07-24T04:58:46.439Z,16.03
2017-07-24T05:01:14.009Z,10.83
2017-07-24T05:03:41.525Z,8.17
2017-07-24T05:06:09.080Z,5.00
2017-07-24T05:08:36.603Z,7.70
2017-07-24T05:11:04.167Z,12.53
2017-07-24T05:13:31.692Z,10.13
2017-07-24T05:15:59.246Z,7.03
2017-07-24T05:18:26.767Z,8.00
2017-07-24T05:20:54.314Z,10.93
2017-07-24T05:23:21.830Z,9.67
2017-07-24T05:25:49.396Z,9.90
2017-07-24T05:28:16.962Z,8.77
2017-07-24T05:30:44.522Z,10.70
2017-07-24T05:33:12.043Z,4.77
2017-07-24T05:35:39.664Z,4.03
2017-07-24T05:38:07.181Z,8.53
2017-07-24T05:40:34.688Z,6.63
2017-07-24T05:43:02.244Z,5.33
2017-07-24T05:45:29.800Z,5.33
2017-07-24T05:47:57.353Z,6.00
2017-07-24T05:50:24.865Z,4.10
2017-07-24T05:52:52.415Z,6.53
2017-07-24T05:55:19.927Z,4.70
2017-07-24T05:57:47.472Z,15.07
2017-07-24T06:00:14.998Z,10.23
2017-07-24T06:02:42.544Z,7.73
2017-07-24T06:05:10.290Z,2.60
2017-07-24T06:07:37.851Z,11.93
2017-07-24T06:10:05.379Z,3.40
2017-07-24T06:12:32.934Z,3.63
2017-07-24T06:15:00.517Z,3.40
2017-07-24T06:17:28.062Z,9.17
2017-07-24T06:19:55.583Z,4.93
2017-07-24T06:22:23.150Z,5.10
2017-07-24T06:24:50.684Z,8.23
2017-07-24T06:27:18.253Z,5.43
2017-07-24T06:29:45.791Z,3.80
2017-07-24T06:32:13.311Z,3.33
2017-07-24T06:34:40.865Z,6.80
2017-07-24T06:37:08.395Z,4.17
2017-07-24T06:39:35.946Z,1.70
2017-07-24T06:42:03.474Z,13.47
2017-07-24T06:44:31.031Z,4.33
2017-07-24T06:46:58.569Z,2.63
2017-07-24T06:49:26.112Z,5.60
2017-07-24T06:51:53.636Z,4.77
2017-07-24T06:54:21.195Z,2.93
2017-07-24T06:56:48.724Z,1.90
2017-07-24T06:59:16.276Z,3.70
2017-07-24T07:01:43.791Z,6.77
2017-07-24T07:04:11.375Z,4.10
2017-07-24T07:06:38.890Z,2.50
2017-07-24T07:09:06.440Z,3.77
2017-07-24T07:11:33.969Z,2.17
2017-07-24T07:14:01.523Z,4.57
2017-07-24T07:16:29.045Z,2.60
2017-07-24T07:18:56.614Z,3.70
2017-07-24T07:21:24.133Z,4.37
2017-07-24T07:23:51.650Z,2.53
2017-07-24T07:26:19.198Z,2.10
2017-07-24T07:28:46.717Z,4.80
2017-07-24T07:31:14.269Z,2.40
2017-07-24T07:33:41.783Z,2.53
2017-07-24T07:36:09.334Z,6.20
2017-07-24T07:38:36.844Z,2.53
2017-07-24T07:41:04.389Z,4.90
2017-07-24T07:43:31.905Z,1.80
2017-07-24T07:45:59.456Z,2.40
2017-07-24T07:48:26.973Z,1.80
2017-07-24T07:50:54.524Z,4.73
2017-07-24T07:53:22.040Z,4.00
2017-07-24T07:55:49.590Z,1.80
2017-07-24T07:58:17.116Z,1.93
2017-07-24T08:00:44.678Z,3.40
2017-07-24T08:03:12.196Z,2.67
2017-07-24T08:05:39.750Z,2.53
2017-07-24T08:08:07.272Z,3.27
2017-07-24T08:10:34.847Z,1.87
2017-07-24T08:13:02.371Z,3.87
2017-07-24T08:15:29.885Z,1.50
2017-07-24T08:17:57.429Z,1.63
2017-07-24T08:20:24.940Z,3.43
2017-07-24T08:22:52.480Z,2.10
2017-07-24T08:25:19.998Z,2.10
2017-07-24T08:27:47.554Z,2.60
2017-07-24T08:30:15.073Z,4.50
2017-07-24T08:32:42.614Z,4.17
2017-07-24T08:35:10.132Z,2.70
2017-07-24T08:37:38.536Z,2.23
2017-07-24T08:40:06.070Z,3.23
2017-07-24T08:42:33.617Z,1.27
2017-07-24T08:45:01.199Z,1.10
2017-07-24T08:47:28.740Z,1.10
2017-07-24T08:49:56.259Z,2.20
2017-07-24T08:52:23.807Z,1.97
2017-07-24T08:54:51.321Z,1.33
2017-07-24T08:57:18.864Z,1.40
2017-07-24T08:59:46.393Z,5.83
2017-07-24T09:02:13.950Z,0.77
2017-07-24T09:04:41.467Z,3.83
2017-07-24T09:07:08.987Z,0.90
2017-07-24T09:09:36.548Z,0.97
2017-07-24T09:12:04.069Z,1.67
2017-07-24T09:14:31.613Z,3.27
2017-07-24T09:16:59.126Z,0.53
2017-07-24T09:19:26.687Z,0.90
2017-07-24T09:21:54.207Z,0.70
2017-07-24T09:24:21.752Z,0.60
2017-07-24T09:26:49.269Z,0.67
2017-07-24T09:29:16.824Z,1.33
2017-07-24T09:31:44.350Z,0.90
2017-07-24T09:34:11.898Z,0.70
2017-07-24T09:36:39.414Z,0.63
2017-07-24T09:39:06.960Z,0.60
2017-07-24T09:41:34.480Z,0.73
2017-07-24T09:44:02.038Z,0.60
2017-07-24T09:46:29.558Z,0.50
2017-07-24T09:48:57.107Z,0.50
2017-07-24T09:51:24.621Z,0.50
2017-07-24T09:53:52.171Z,0.60
2017-07-24T09:56:19.688Z,1.37
2017-07-24T09:58:47.206Z,0.70
2017-07-24T10:01:14.766Z,0.50
2017-07-24T10:03:42.285Z,0.60
2017-07-24T10:06:09.834Z,0.60
2017-07-24T10:08:37.348Z,0.60
2017-07-24T10:11:04.899Z,1.10
2017-07-24T10:13:32.417Z,4.30
2017-07-24T10:15:59.959Z,0.70
2017-07-24T10:18:27.486Z,0.80
2017-07-24T10:20:55.026Z,0.60
2017-07-24T10:23:22.546Z,0.50
2017-07-24T10:25:50.102Z,1.23
2017-07-24T10:28:17.620Z,0.60
2017-07-24T10:30:45.176Z,0.60
2017-07-24T10:33:12.706Z,0.90
2017-07-24T10:35:40.254Z,3.27
2017-07-24T10:38:07.772Z,1.07
2017-07-24T10:40:35.325Z,1.17
2017-07-24T10:43:02.837Z,0.70
2017-07-24T10:45:30.394Z,1.00
2017-07-24T10:47:57.918Z,3.50
2017-07-24T10:50:25.438Z,0.70
2017-07-24T10:52:52.977Z,0.70
2017-07-24T10:55:20.488Z,0.73
2017-07-24T10:57:48.070Z,1.63
2017-07-24T11:00:15.590Z,0.97
2017-07-24T11:02:43.151Z,0.70
2017-07-24T11:05:10.667Z,2.10
2017-07-24T11:07:38.216Z,0.60
2017-07-24T11:10:05.735Z,0.80
2017-07-24T11:12:33.280Z,0.83
2017-07-24T11:15:00.793Z,0.57
2017-07-24T11:17:28.354Z,0.60
2017-07-24T11:19:55.875Z,0.87
2017-07-24T11:22:23.434Z,4.03
2017-07-24T11:24:50.953Z,0.60
2017-07-24T11:27:18.515Z,0.63
2017-07-24T11:29:46.037Z,0.70
2017-07-24T11:32:13.573Z,0.60
2017-07-24T11:34:41.121Z,0.60
2017-07-24T11:37:08.641Z,3.33
2017-07-24T11:39:36.188Z,0.60
2017-07-24T11:42:03.714Z,0.70
2017-07-24T11:44:31.261Z,0.83
2017-07-24T11:46:58.785Z,1.43
2017-07-24T11:49:26.349Z,0.70
2017-07-24T11:51:53.860Z,0.60
2017-07-24T11:54:21.407Z,0.60
2017-07-24T11:56:48.928Z,1.20
2017-07-24T11:59:16.471Z,0.60
2017-07-24T12:01:43.984Z,5.03
2017-07-24T12:04:11.536Z,0.80
2017-07-24T12:06:39.056Z,1.00
2017-07-24T12:09:06.598Z,0.70
2017-07-24T12:11:34.126Z,0.90
2017-07-24T12:14:01.672Z,0.80
2017-07-24T12:16:29.190Z,0.80
2017-07-24T12:18:56.705Z,0.80
2017-07-24T12:21:24.262Z,1.63
2017-07-24T12:23:51.778Z,2.20
2017-07-24T12:26:19.333Z,1.27
2017-07-24T12:28:46.851Z,1.07
2017-07-24T12:31:14.396Z,0.73
2017-07-24T12:33:41.913Z,1.00
2017-07-24T12:36:09.461Z,9.10
2017-07-24T12:38:36.981Z,1.03
2017-07-24T12:41:04.530Z,0.80
2017-07-24T12:43:32.043Z,1.17
2017-07-24T12:45:59.580Z,1.20
2017-07-24T12:48:27.092Z,1.10
2017-07-24T12:50:54.632Z,1.63
2017-07-24T12:53:22.150Z,3.00
2017-07-24T12:55:49.698Z,2.30
2017-07-24T12:58:17.209Z,2.10
2017-07-24T13:00:44.769Z,1.30
2017-07-24T13:03:12.287Z,1.93
2017-07-24T13:05:39.837Z,0.80
2017-07-24T13:08:07.361Z,0.97
2017-07-24T13:10:34.875Z,1.67
2017-07-24T13:13:02.430Z,1.30
2017-07-24T13:15:29.949Z,2.53
2017-07-24T13:17:57.500Z,2.07
2017-07-24T13:20:25.017Z,1.17
2017-07-24T13:22:52.581Z,1.00
2017-07-24T13:25:20.095Z,1.53
2017-07-24T13:27:47.643Z,1.10
2017-07-24T13:30:15.170Z,1.73
2017-07-24T13:32:42.713Z,1.80
2017-07-24T13:35:10.227Z,2.23
2017-07-24T13:37:37.779Z,1.10
2017-07-24T13:40:05.298Z,1.07
2017-07-24T13:42:32.862Z,3.60
2017-07-24T13:45:00.385Z,1.23
2017-07-24T13:47:27.939Z,1.07
2017-07-24T13:49:55.459Z,1.87
2017-07-24T13:52:22.974Z,1.33
2017-07-24T13:54:50.511Z,2.77
2017-07-24T13:57:18.029Z,1.40
2017-07-24T13:59:45.590Z,7.30
2017-07-24T14:02:13.111Z,1.17
2017-07-24T14:04:40.658Z,6.87
2017-07-24T14:07:08.221Z,4.00
2017-07-24T14:09:35.769Z,1.30
2017-07-24T14:12:03.294Z,2.30
2017-07-24T14:14:30.847Z,1.20
2017-07-24T14:16:58.368Z,1.50
2017-07-24T14:19:25.917Z,2.60
2017-07-24T14:21:53.436Z,3.13
2017-07-24T14:24:20.993Z,1.40
2017-07-24T14:26:48.513Z,1.67
2017-07-24T14:29:16.061Z,1.13
2017-07-24T14:31:43.583Z,2.37
2017-07-24T14:34:11.132Z,1.40
2017-07-24T14:36:38.646Z,2.60
2017-07-24T14:39:06.198Z,2.30
2017-07-24T14:41:33.717Z,3.40
2017-07-24T14:44:01.236Z,4.17
2017-07-24T14:46:28.782Z,2.13
2017-07-24T14:48:56.309Z,2.40
2017-07-24T14:51:23.851Z,3.17
2017-07-24T14:53:51.368Z,5.47
2017-07-24T14:56:18.914Z,4.37
2017-07-24T14:58:46.440Z,1.60
2017-07-24T15:01:13.988Z,1.87
2017-07-24T15:03:41.506Z,2.70
2017-07-24T15:06:09.057Z,2.70
2017-07-24T15:08:36.580Z,2.07
2017-07-24T15:11:04.126Z,1.87
2017-07-24T15:13:31.642Z,2.00
2017-07-24T15:15:59.195Z,1.20
2017-07-24T15:18:26.723Z,1.30
2017-07-24T15:20:54.274Z,4.90
2017-07-24T15:23:21.790Z,1.40
2017-07-24T15:25:49.339Z,4.40
2017-07-24T15:28:16.890Z,2.77
2017-07-24T15:30:44.405Z,2.30
2017-07-24T15:33:11.967Z,2.93
2017-07-24T15:35:39.503Z,1.80
2017-07-24T15:38:07.054Z,2.13
2017-07-24T15:40:34.569Z,1.47
2017-07-24T15:43:02.110Z,1.33
2017-07-24T15:45:29.629Z,1.57
2017-07-24T15:47:57.185Z,5.43
2017-07-24T15:50:24.698Z,2.00
2017-07-24T15:52:52.242Z,1.20
2017-07-24T15:55:19.762Z,1.10
2017-07-24T15:57:47.312Z,3.50
2017-07-24T16:00:14.822Z,3.70
2017-07-24T16:02:42.369Z,2.10
2017-07-24T16:05:09.890Z,1.00
2017-07-24T16:07:37.430Z,5.80
2017-07-24T16:10:04.951Z,1.73
2017-07-24T16:12:32.472Z,1.10
2017-07-24T16:15:00.023Z,1.53
2017-07-24T16:17:27.541Z,1.10
2017-07-24T16:19:55.101Z,0.90
2017-07-24T16:22:22.616Z,1.40
2017-07-24T16:24:50.166Z,1.97
2017-07-24T16:27:17.682Z,3.70
2017-07-24T16:29:45.233Z,0.83
2017-07-24T16:32:12.757Z,2.63
2017-07-24T16:34:40.318Z,1.77
2017-07-24T16:37:07.836Z,1.00
2017-07-24T16:39:35.390Z,1.30
2017-07-24T16:42:02.914Z,1.20
2017-07-24T16:44:30.460Z,1.17
2017-07-24T16:46:57.982Z,1.20
2017-07-24T16:49:25.537Z,1.10
2017-07-24T16:51:53.057Z,1.50
2017-07-24T16:54:20.607Z,2.90
2017-07-24T16:56:48.130Z,1.53
2017-07-24T16:59:15.649Z,2.50
2017-07-24T17:01:43.208Z,2.57
2017-07-24T17:04:10.729Z,7.13
2017-07-24T17:06:38.272Z,4.83
2017-07-24T17:09:05.788Z,1.90
2017-07-24T17:11:33.337Z,4.53
2017-07-24T17:14:00.862Z,1.50
2017-07-24T17:16:28.416Z,3.70
2017-07-24T17:18:55.937Z,1.43
2017-07-24T17:21:23.489Z,2.20
2017-07-24T17:23:51.013Z,1.43
2017-07-24T17:26:18.570Z,0.90
2017-07-24T17:28:46.086Z,1.10
2017-07-24T17:31:13.640Z,1.10
2017-07-24T17:33:41.155Z,2.53
2017-07-24T17:36:08.694Z,0.90
2017-07-24T17:38:36.213Z,2.10
2017-07-24T17:41:03.769Z,1.73
2017-07-24T17:43:31.290Z,3.80
2017-07-24T17:45:58.803Z,1.80
2017-07-24T17:48:26.362Z,1.07
2017-07-24T17:50:53.878Z,0.90
2017-07-24T17:53:21.430Z,0.90
2017-07-24T17:55:48.947Z,3.53
2017-07-24T17:58:16.496Z,3.43
2017-07-24T18:00:44.022Z,1.37
2017-07-24T18:03:11.577Z,1.37
2017-07-24T18:05:39.103Z,5.07
2017-07-24T18:08:06.655Z,5.03
2017-07-24T18:10:34.175Z,2.60
2017-07-24T18:13:01.724Z,1.17
2017-07-24T18:15:29.239Z,0.87
2017-07-24T18:17:56.788Z,4.37
2017-07-24T18:20:24.306Z,1.10
2017-07-24T18:22:51.863Z,0.80
2017-07-24T18:25:19.389Z,1.00
2017-07-24T18:27:46.947Z,1.47
2017-07-24T18:30:14.460Z,2.63
2017-07-24T18:32:42.042Z,1.20
2017-07-24T18:35:09.563Z,2.20
2017-07-24T18:37:37.094Z,0.80
2017-07-24T18:40:04.649Z,1.47
2017-07-24T18:42:32.170Z,2.47
2017-07-24T18:44:59.723Z,3.43
2017-07-24T18:47:27.255Z,1.47
2017-07-24T18:49:54.801Z,3.83
2017-07-24T18:52:22.325Z,3.37
2017-07-24T18:54:49.862Z,3.80
2017-07-24T18:57:17.387Z,4.60
2017-07-24T18:59:44.941Z,5.30
2017-07-24T19:02:12.457Z,7.00
2017-07-24T19:04:40.016Z,12.60
2017-07-24T19:07:07.539Z,17.00
2017-07-24T19:09:35.099Z,12.37
2017-07-24T19:12:02.624Z,14.50
2017-07-24T19:14:30.166Z,9.80
2017-07-24T19:16:57.687Z,10.53
2017-07-24T19:19:25.261Z,14.73
2017-07-24T19:21:52.805Z,16.60
2017-07-24T19:24:20.332Z,16.50
2017-07-24T19:26:47.890Z,18.87
2017-07-24T19:29:15.405Z,17.40
2017-07-24T19:31:42.986Z,27.07
2017-07-24T19:34:10.515Z,21.40
2017-07-24T19:36:38.064Z,23.20
2017-07-24T19:39:05.589Z,24.97
2017-07-24T19:41:33.136Z,26.23
2017-07-24T19:44:00.670Z,25.33
2017-07-24T19:46:28.237Z,23.17
2017-07-24T19:48:55.770Z,34.13
2017-07-24T19:51:23.332Z,29.87
2017-07-24T19:53:50.861Z,42.53
2017-07-24T19:56:18.427Z,40.03
2017-07-24T19:58:45.946Z,41.73
2017-07-24T20:01:13.527Z,36.80
2017-07-24T20:03:41.059Z,44.73
2017-07-24T20:06:08.581Z,43.20
2017-07-24T20:08:36.138Z,43.27
2017-07-24T20:11:03.661Z,39.33
2017-07-24T20:13:31.217Z,40.53
2017-07-24T20:15:58.736Z,42.07
2017-07-24T20:18:26.296Z,39.40
2017-07-24T20:20:53.821Z,34.77
2017-07-24T20:23:21.390Z,37.17
2017-07-24T20:25:48.916Z,33.80
2017-07-24T20:28:16.476Z,33.13
2017-07-24T20:30:44.000Z,29.17
2017-07-24T20:33:11.566Z,22.10
2017-07-24T20:35:39.226Z,31.90
2017-07-24T20:38:06.783Z,25.47
2017-07-24T20:40:34.322Z,25.27
2017-07-24T20:43:01.882Z,20.07
2017-07-24T20:45:29.413Z,22.30
2017-07-24T20:47:56.981Z,20.00
2017-07-24T20:50:24.499Z,16.30
2017-07-24T20:52:52.022Z,13.37
2017-07-24T20:55:19.573Z,17.50
2017-07-24T20:57:47.089Z,12.80
2017-07-24T21:00:14.649Z,14.37
2017-07-24T21:02:42.176Z,10.93
2017-07-24T21:05:09.734Z,12.73
2017-07-24T21:07:37.261Z,18.20
2017-07-24T21:10:04.804Z,6.27
2017-07-24T21:12:32.331Z,10.40
2017-07-24T21:14:59.881Z,11.33
2017-07-24T21:17:27.406Z,11.70
2017-07-24T21:19:54.963Z,10.00
2017-07-24T21:22:22.476Z,8.00
2017-07-24T21:24:50.030Z,6.13
2017-07-24T21:27:17.549Z,7.03
2017-07-24T21:29:45.105Z,5.10
2017-07-24T21:32:12.631Z,4.70
2017-07-24T21:34:40.175Z,7.40
2017-07-24T21:37:07.710Z,10.90
2017-07-24T21:39:35.236Z,8.50
2017-07-24T21:42:02.786Z,5.83
2017-07-24T21:44:30.309Z,6.23
2017-07-24T21:46:57.852Z,13.20
2017-07-24T21:49:25.366Z,5.60
2017-07-24T21:51:52.931Z,7.90
2017-07-24T21:54:20.457Z,8.43
2017-07-24T21:56:48.016Z,12.33
2017-07-24T21:59:15.542Z,7.57
2017-07-24T22:01:43.093Z,7.40
2017-07-24T22:04:10.638Z,9.60
2017-07-24T22:06:38.184Z,10.73
2017-07-24T22:09:05.703Z,3.60
2017-07-24T22:11:33.261Z,18.40
2017-07-24T22:14:00.786Z,9.13
2017-07-24T22:16:28.344Z,8.60
2017-07-24T22:18:55.860Z,8.40
2017-07-24T22:21:23.413Z,13.20
2017-07-24T22:23:50.932Z,10.60
2017-07-24T22:26:18.450Z,2.20
2017-07-24T22:28:46.003Z,4.37
2017-07-24T22:31:13.521Z,3.33
2017-07-24T22:33:41.072Z,3.07
2017-07-24T22:36:08.589Z,3.03
2017-07-24T22:38:36.137Z,3.13
2017-07-24T22:41:03.695Z,2.60
2017-07-24T22:43:31.250Z,1.87
2017-07-24T22:45:58.815Z,2.13
2017-07-24T22:48:26.378Z,2.70
2017-07-24T22:50:53.894Z,3.37
2017-07-24T22:53:21.440Z,3.33
2017-07-24T22:55:48.972Z,3.33
2017-07-24T22:58:16.513Z,2.67
2017-07-24T23:00:44.159Z,4.10
2017-07-24T23:03:11.714Z,3.00
2017-07-24T23:05:39.246Z,3.00
2017-07-24T23:08:06.794Z,4.87
2017-07-24T23:10:34.411Z,5.07
2017-07-24T23:13:01.962Z,2.53
2017-07-24T23:15:29.494Z,2.50
2017-07-24T23:17:57.023Z,3.17
2017-07-24T23:20:24.578Z,3.83
2017-07-24T23:22:52.096Z,3.43
2017-07-24T23:25:19.646Z,6.83
2017-07-24T23:27:47.171Z,5.90
2017-07-24T23:30:14.728Z,1.97
2017-07-24T23:32:42.264Z,2.47
2017-07-24T23:35:09.835Z,2.60
2017-07-24T23:37:37.359Z,3.03
2017-07-24T23:40:04.902Z,2.20
2017-07-24T23:42:32.416Z,2.73
2017-07-24T23:44:59.964Z,2.27
2017-07-24T23:47:27.484Z,3.70
2017-07-24T23:49:55.045Z,2.40
2017-07-24T23:52:22.570Z,3.43
2017-07-24T23:54:50.121Z,4.27
2017-07-24T23:57:17.642Z,3.10
2017-07-24T23:59:45.193Z,2.40
